createdAt,value
2023-04-07T00:01:25.681Z,0.60
2023-04-07T00:03:52.581Z,0.60
2023-04-07T00:06:19.554Z,0.50
2023-04-07T00:08:46.224Z,0.50
2023-04-07T00:11:12.882Z,0.50
2023-04-07T00:13:39.476Z,0.50
2023-04-07T00:16:06.382Z,0.50
2023-04-07T00:18:33.122Z,0.40
2023-04-07T00:20:59.744Z,0.40
2023-04-07T00:23:27.129Z,0.40
2023-04-07T00:25:53.869Z,0.30
2023-04-07T00:28:20.623Z,0.30
2023-04-07T00:30:47.315Z,0.30
2023-04-07T00:33:14.185Z,0.30
2023-04-07T00:35:41.131Z,0.30
2023-04-07T00:38:07.854Z,0.20
2023-04-07T00:40:34.663Z,0.20
2023-04-07T00:43:01.350Z,0.20
2023-04-07T00:45:28.015Z,0.20
2023-04-07T00:47:56.435Z,0.20
2023-04-07T00:50:23.280Z,0.20
2023-04-07T00:52:50.605Z,0.20
2023-04-07T00:55:17.298Z,0.10
2023-04-07T00:57:46.688Z,0.10
2023-04-07T01:00:13.693Z,0.10
2023-04-07T01:02:52.569Z,0.10
2023-04-07T01:05:42.785Z,0.10
2023-04-07T01:08:17.895Z,0.10
2023-04-07T01:10:52.029Z,0.10
2023-04-07T01:13:24.163Z,0.10
2023-04-07T01:15:53.007Z,0.10
2023-04-07T01:18:27.764Z,0.10
2023-04-07T01:20:59.254Z,0.10
2023-04-07T01:23:45.353Z,0.10
2023-04-07T01:26:26.338Z,0.10
2023-04-07T01:29:32.984Z,0.00
2023-04-07T01:32:02.126Z,0.00
2023-04-07T01:34:31.342Z,0.00
2023-04-07T01:36:59.838Z,0.00
2023-04-07T01:39:27.866Z,0.00
2023-04-07T01:41:56.215Z,0.00
2023-04-07T01:44:23.939Z,0.00
2023-04-07T01:46:53.838Z,0.00
2023-04-07T01:49:20.872Z,0.00
2023-04-07T01:51:50.415Z,0.00
2023-04-07T01:54:18.356Z,-0.10
2023-04-07T01:56:45.443Z,0.00
2023-04-07T01:59:12.289Z,0.00
2023-04-07T02:01:39.643Z,0.00
2023-04-07T02:04:38.868Z,0.00
2023-04-07T02:07:19.296Z,0.00
2023-04-07T02:09:48.220Z,0.00
2023-04-07T02:12:16.996Z,0.10
2023-04-07T02:14:44.604Z,0.10
2023-04-07T02:17:13.469Z,0.10
2023-04-07T02:19:42.758Z,0.10
2023-04-07T02:22:09.852Z,0.10
2023-04-07T02:24:36.477Z,0.10
2023-04-07T02:27:03.136Z,0.20
2023-04-07T02:29:30.039Z,0.20
2023-04-07T02:31:56.992Z,0.20
2023-04-07T02:34:23.706Z,0.20
2023-04-07T02:36:50.417Z,0.30
2023-04-07T02:39:17.323Z,0.30
2023-04-07T02:41:43.991Z,0.30
2023-04-07T02:44:10.747Z,0.30
2023-04-07T02:46:37.604Z,0.40
2023-04-07T02:49:04.304Z,0.40
2023-04-07T02:51:31.378Z,0.50
2023-04-07T02:53:58.204Z,0.50
2023-04-07T02:56:25.004Z,0.50
2023-04-07T02:58:51.651Z,0.60
2023-04-07T03:01:18.308Z,0.60
2023-04-07T03:03:47.679Z,0.60
2023-04-07T03:06:14.569Z,0.60
2023-04-07T03:08:42.291Z,0.70
2023-04-07T03:11:09.028Z,0.70
2023-04-07T03:13:35.753Z,0.70
2023-04-07T03:16:02.551Z,0.70
2023-04-07T03:18:29.283Z,0.70
2023-04-07T03:20:56.172Z,0.70
2023-04-07T03:23:23.942Z,0.70
2023-04-07T03:25:50.758Z,0.80
2023-04-07T03:28:17.478Z,0.80
2023-04-07T03:30:44.236Z,0.80
2023-04-07T03:33:11.130Z,0.80
2023-04-07T03:35:37.886Z,0.70
2023-04-07T03:38:04.501Z,0.70
2023-04-07T03:40:33.580Z,0.70
2023-04-07T03:43:01.300Z,0.70
2023-04-07T03:45:28.017Z,0.80
2023-04-07T03:47:54.703Z,0.80
2023-04-07T03:50:21.515Z,0.80
2023-04-07T03:52:48.285Z,0.80
2023-04-07T03:55:14.909Z,0.80
2023-04-07T03:57:41.706Z,0.80
2023-04-07T04:00:09.191Z,0.80
2023-04-07T04:02:36.606Z,0.80
2023-04-07T04:05:03.383Z,0.80
2023-04-07T04:07:30.220Z,0.80
2023-04-07T04:09:57.231Z,0.80
2023-04-07T04:12:23.855Z,0.80
2023-04-07T04:14:50.798Z,0.80
2023-04-07T04:17:17.519Z,0.80
2023-04-07T04:19:44.174Z,0.80
2023-04-07T04:22:11.491Z,0.90
2023-04-07T04:24:38.176Z,0.90
2023-04-07T04:27:04.947Z,0.90
2023-04-07T04:29:32.957Z,0.90
2023-04-07T04:31:59.844Z,0.90
2023-04-07T04:34:26.470Z,0.90
2023-04-07T04:36:53.400Z,0.90
2023-04-07T04:39:20.383Z,0.90
2023-04-07T04:41:47.025Z,0.90
2023-04-07T04:44:13.789Z,1.00
2023-04-07T04:46:40.400Z,1.00
2023-04-07T04:49:07.234Z,1.10
2023-04-07T04:51:33.870Z,1.10
2023-04-07T04:54:00.642Z,1.10
2023-04-07T04:56:27.324Z,1.10
2023-04-07T04:58:53.957Z,1.20
2023-04-07T05:01:20.695Z,1.20
2023-04-07T05:03:47.635Z,1.30
2023-04-07T05:06:14.375Z,1.30
2023-04-07T05:08:41.011Z,1.40
2023-04-07T05:11:07.770Z,1.40
2023-04-07T05:13:34.545Z,1.50
2023-04-07T05:16:01.575Z,1.50
2023-04-07T05:18:28.329Z,1.60
2023-04-07T05:20:54.931Z,1.70
2023-04-07T05:23:21.630Z,1.70
2023-04-07T05:25:48.453Z,1.70
2023-04-07T05:28:15.113Z,1.80
2023-04-07T05:30:41.732Z,1.80
2023-04-07T05:33:08.556Z,1.90
2023-04-07T05:35:35.389Z,1.90
2023-04-07T05:38:02.127Z,1.90
2023-04-07T05:40:30.781Z,2.00
2023-04-07T05:42:57.483Z,2.00
2023-04-07T05:45:24.098Z,2.10
2023-04-07T05:47:51.305Z,2.20
2023-04-07T05:50:18.323Z,2.20
2023-04-07T05:52:44.988Z,2.30
2023-04-07T05:55:11.916Z,2.40
2023-04-07T05:57:38.681Z,2.50
2023-04-07T06:00:06.014Z,2.60
2023-04-07T06:02:32.832Z,2.70
2023-04-07T06:04:59.627Z,2.70
2023-04-07T06:07:26.330Z,2.80
2023-04-07T06:09:53.132Z,2.90
2023-04-07T06:12:19.835Z,3.00
2023-04-07T06:14:52.728Z,3.00
2023-04-07T06:17:19.726Z,3.10
2023-04-07T06:19:46.528Z,3.10
2023-04-07T06:22:13.190Z,3.20
2023-04-07T06:24:39.906Z,3.30
2023-04-07T06:27:06.974Z,3.40
2023-04-07T06:29:34.285Z,3.50
2023-04-07T06:32:01.545Z,3.60
2023-04-07T06:34:28.178Z,3.70
2023-04-07T06:36:55.833Z,3.80
2023-04-07T06:39:23.532Z,3.80
2023-04-07T06:41:50.206Z,3.90
2023-04-07T06:44:16.894Z,4.00
2023-04-07T06:46:44.368Z,4.10
2023-04-07T06:49:12.020Z,4.10
2023-04-07T06:51:38.720Z,4.30
2023-04-07T06:54:07.695Z,4.40
2023-04-07T06:56:34.370Z,4.50
2023-04-07T06:59:01.574Z,4.60
2023-04-07T07:01:28.272Z,4.70
2023-04-07T07:03:55.005Z,4.90
2023-04-07T07:06:21.754Z,5.10
2023-04-07T07:08:48.395Z,5.10
2023-04-07T07:11:15.366Z,5.30
2023-04-07T07:13:41.993Z,5.30
2023-04-07T07:16:08.738Z,5.40
2023-04-07T07:18:36.900Z,5.50
2023-04-07T07:21:03.699Z,5.40
2023-04-07T07:23:30.456Z,5.60
2023-04-07T07:25:57.236Z,5.60
2023-04-07T07:28:23.904Z,5.70
2023-04-07T07:30:50.616Z,5.80
2023-04-07T07:33:17.446Z,5.80
2023-04-07T07:35:44.103Z,5.90
2023-04-07T07:38:11.435Z,5.90
2023-04-07T07:40:38.142Z,5.90
2023-04-07T07:43:04.791Z,6.00
2023-04-07T07:45:31.434Z,6.20
2023-04-07T07:47:58.356Z,6.20
2023-04-07T07:50:25.036Z,6.20
2023-04-07T07:52:51.751Z,6.40
2023-04-07T07:55:18.555Z,6.60
2023-04-07T07:57:45.308Z,6.80
2023-04-07T08:00:12.399Z,6.90
2023-04-07T08:02:39.854Z,7.10
2023-04-07T08:05:07.457Z,7.00
2023-04-07T08:07:34.261Z,7.20
2023-04-07T08:10:01.012Z,7.30
2023-04-07T08:12:27.742Z,7.30
2023-04-07T08:14:54.322Z,7.30
2023-04-07T08:17:21.238Z,7.30
2023-04-07T08:19:47.976Z,7.20
2023-04-07T08:22:14.796Z,7.30
2023-04-07T08:24:42.030Z,7.20
2023-04-07T08:27:08.686Z,7.20
2023-04-07T08:29:35.394Z,7.30
2023-04-07T08:32:02.138Z,7.30
2023-04-07T08:34:29.121Z,7.40
2023-04-07T08:36:55.758Z,7.50
2023-04-07T08:39:22.930Z,7.70
2023-04-07T08:41:51.221Z,7.60
2023-04-07T08:44:20.999Z,7.50
2023-04-07T08:46:49.351Z,7.50
2023-04-07T08:49:17.965Z,7.50
2023-04-07T08:51:48.374Z,7.40
2023-04-07T08:54:19.320Z,7.50
2023-04-07T08:56:46.182Z,7.40
2023-04-07T08:59:14.441Z,7.20
2023-04-07T09:01:42.057Z,7.20
2023-04-07T09:04:10.464Z,7.20
2023-04-07T09:06:37.762Z,7.40
2023-04-07T09:09:06.278Z,7.30
2023-04-07T09:11:39.113Z,7.20
2023-04-07T09:14:06.038Z,7.20
2023-04-07T09:16:32.893Z,7.30
2023-04-07T09:18:59.896Z,7.20
2023-04-07T09:21:27.403Z,7.20
2023-04-07T09:23:54.296Z,7.30
2023-04-07T09:26:27.188Z,7.30
2023-04-07T09:29:03.080Z,7.30
2023-04-07T09:31:55.368Z,7.50
2023-04-07T09:34:26.660Z,7.40
2023-04-07T09:36:53.608Z,7.30
2023-04-07T09:39:20.790Z,7.20
2023-04-07T09:41:47.610Z,7.30
2023-04-07T09:44:14.441Z,7.30
2023-04-07T09:46:58.151Z,7.30
2023-04-07T09:49:26.045Z,7.00
2023-04-07T09:52:01.104Z,7.00
2023-04-07T09:54:39.001Z,7.00
2023-04-07T09:57:10.671Z,7.00
2023-04-07T09:59:42.479Z,7.00
2023-04-07T10:02:09.371Z,7.00
2023-04-07T10:04:37.408Z,7.10
2023-04-07T10:07:05.900Z,7.10
2023-04-07T10:09:32.914Z,7.10
2023-04-07T10:12:00.117Z,7.20
2023-04-07T10:14:31.882Z,7.30
2023-04-07T10:17:03.389Z,7.30
2023-04-07T10:19:34.527Z,7.50
2023-04-07T10:22:02.982Z,7.30
2023-04-07T10:24:41.534Z,7.30
2023-04-07T10:27:12.812Z,7.10
2023-04-07T10:29:42.376Z,7.30
2023-04-07T10:32:09.634Z,7.30
2023-04-07T10:34:51.335Z,7.50
2023-04-07T10:37:21.256Z,7.60
2023-04-07T10:40:19.099Z,7.70
2023-04-07T10:42:47.669Z,7.50
2023-04-07T10:45:14.486Z,7.20
2023-04-07T10:48:01.472Z,7.20
2023-04-07T10:50:29.293Z,7.20
2023-04-07T10:53:09.770Z,7.30
2023-04-07T10:55:47.170Z,7.30
2023-04-07T10:58:26.591Z,7.30
2023-04-07T11:01:09.368Z,7.10
2023-04-07T11:03:38.254Z,7.00
2023-04-07T11:06:10.106Z,6.90
2023-04-07T11:08:42.567Z,6.80
2023-04-07T11:11:11.666Z,6.70
2023-04-07T11:13:51.559Z,6.70
2023-04-07T11:16:34.415Z,6.80
2023-04-07T11:19:01.071Z,6.80
2023-04-07T11:21:27.945Z,6.90
2023-04-07T11:23:54.603Z,6.90
2023-04-07T11:26:21.537Z,6.80
2023-04-07T11:28:51.379Z,6.90
2023-04-07T11:31:29.197Z,7.00
2023-04-07T11:34:04.884Z,7.10
2023-04-07T11:36:38.420Z,7.00
2023-04-07T11:39:05.399Z,7.00
2023-04-07T11:41:33.581Z,6.80
2023-04-07T11:44:11.996Z,6.80
2023-04-07T11:46:55.033Z,6.80
2023-04-07T11:49:23.697Z,6.70
2023-04-07T11:52:04.485Z,6.70
2023-04-07T11:54:47.289Z,6.70
2023-04-07T11:57:14.598Z,6.50
2023-04-07T11:59:41.994Z,6.50
2023-04-07T12:02:09.913Z,6.50
2023-04-07T12:04:40.427Z,6.50
2023-04-07T12:07:09.216Z,6.40
2023-04-07T12:09:38.079Z,6.40
2023-04-07T12:12:07.630Z,6.40
2023-04-07T12:14:35.825Z,6.40
2023-04-07T12:17:04.366Z,6.40
2023-04-07T12:19:35.922Z,6.40
2023-04-07T12:22:03.506Z,6.40
2023-04-07T12:24:32.654Z,6.40
2023-04-07T12:26:59.611Z,6.50
2023-04-07T12:29:26.356Z,6.40
2023-04-07T12:31:53.074Z,6.40
2023-04-07T12:34:19.905Z,6.40
2023-04-07T12:36:46.574Z,6.70
2023-04-07T12:39:13.204Z,6.80
2023-04-07T12:41:40.079Z,6.80
2023-04-07T12:44:06.952Z,6.80
2023-04-07T12:46:34.045Z,7.00
2023-04-07T12:49:01.187Z,7.10
2023-04-07T12:51:28.496Z,7.10
2023-04-07T12:53:55.303Z,7.10
2023-04-07T12:56:22.413Z,7.00
2023-04-07T12:58:49.146Z,7.00
2023-04-07T13:01:17.142Z,6.90
2023-04-07T13:03:44.358Z,6.80
2023-04-07T13:06:11.633Z,6.70
2023-04-07T13:08:39.048Z,6.70
2023-04-07T13:11:05.936Z,6.70
2023-04-07T13:13:32.925Z,6.70
2023-04-07T13:15:59.698Z,6.60
2023-04-07T13:18:26.377Z,6.60
2023-04-07T13:21:15.743Z,6.50
2023-04-07T13:23:43.323Z,6.40
2023-04-07T13:26:11.230Z,6.50
2023-04-07T13:28:38.772Z,6.50
2023-04-07T13:31:05.637Z,6.50
2023-04-07T13:33:32.336Z,6.50
2023-04-07T13:36:00.175Z,6.50
2023-04-07T13:38:27.292Z,6.40
2023-04-07T13:40:53.965Z,6.40
2023-04-07T13:43:20.732Z,6.30
2023-04-07T13:45:48.697Z,6.30
2023-04-07T13:48:15.928Z,6.20
2023-04-07T13:50:42.535Z,6.20
2023-04-07T13:53:09.269Z,6.30
2023-04-07T13:55:36.784Z,6.30
2023-04-07T13:58:03.445Z,6.30
2023-04-07T14:00:30.337Z,6.30
2023-04-07T14:02:57.090Z,6.30
2023-04-07T14:05:24.501Z,6.40
2023-04-07T14:07:51.442Z,6.40
2023-04-07T14:10:18.214Z,6.40
2023-04-07T14:12:45.066Z,6.40
2023-04-07T14:15:11.820Z,6.30
2023-04-07T14:17:38.573Z,6.30
2023-04-07T14:20:06.084Z,6.10
2023-04-07T14:22:32.965Z,6.20
2023-04-07T14:24:59.734Z,6.20
2023-04-07T14:27:26.371Z,6.30
2023-04-07T14:29:54.158Z,6.30
2023-04-07T14:32:20.874Z,6.30
2023-04-07T14:34:47.963Z,6.30
2023-04-07T14:37:16.144Z,6.20
2023-04-07T14:39:45.883Z,6.20
2023-04-07T14:42:22.482Z,6.20
2023-04-07T14:44:49.791Z,6.30
2023-04-07T14:47:16.570Z,6.30
2023-04-07T14:49:43.311Z,6.20
2023-04-07T14:52:10.462Z,6.20
2023-04-07T14:54:37.348Z,6.10
2023-04-07T14:57:03.957Z,6.10
2023-04-07T14:59:30.678Z,6.10
2023-04-07T15:01:57.592Z,6.10
2023-04-07T15:04:24.372Z,6.10
2023-04-07T15:06:51.182Z,6.00
2023-04-07T15:09:19.096Z,6.00
2023-04-07T15:11:48.818Z,6.10
2023-04-07T15:14:15.427Z,6.00
2023-04-07T15:19:08.662Z,6.00
2023-04-07T15:21:35.676Z,6.00
2023-04-07T15:24:02.300Z,6.00
2023-04-07T15:26:29.008Z,6.10
2023-04-07T15:28:55.664Z,6.10
2023-04-07T15:31:23.550Z,6.10
2023-04-07T15:33:51.492Z,6.10
2023-04-07T15:36:18.297Z,6.10
2023-04-07T15:38:45.142Z,6.10
2023-04-07T15:41:16.522Z,6.10
2023-04-07T15:43:43.283Z,6.10
2023-04-07T15:46:10.158Z,6.10
2023-04-07T15:48:36.775Z,6.10
2023-04-07T15:51:03.553Z,6.10
2023-04-07T15:53:30.623Z,6.10
2023-04-07T15:55:57.329Z,6.10
2023-04-07T15:58:24.141Z,6.10
2023-04-07T16:00:50.803Z,6.10
2023-04-07T16:03:17.592Z,6.10
2023-04-07T16:05:44.427Z,6.10
2023-04-07T16:08:13.606Z,6.10
2023-04-07T16:10:40.635Z,6.10
2023-04-07T16:13:07.441Z,6.10
2023-04-07T16:15:40.742Z,6.10
2023-04-07T16:18:14.203Z,6.20
2023-04-07T16:20:40.948Z,6.20
2023-04-07T16:23:07.701Z,6.20
2023-04-07T16:25:35.307Z,6.20
2023-04-07T16:28:01.958Z,6.20
2023-04-07T16:30:28.797Z,6.20
2023-04-07T16:32:55.618Z,6.20
2023-04-07T16:35:22.517Z,6.20
2023-04-07T16:37:50.111Z,6.20
2023-04-07T16:40:16.878Z,6.20
2023-04-07T16:42:43.638Z,6.20
2023-04-07T16:45:10.677Z,6.30
2023-04-07T16:47:38.108Z,6.30
2023-04-07T16:50:05.300Z,6.30
2023-04-07T16:52:32.370Z,6.30
2023-04-07T16:55:00.338Z,6.30
2023-04-07T16:57:27.009Z,6.20
2023-04-07T16:59:53.854Z,6.20
2023-04-07T17:02:20.830Z,6.20
2023-04-07T17:04:47.874Z,6.20
2023-04-07T17:07:14.601Z,6.20
2023-04-07T17:09:41.246Z,6.20
2023-04-07T17:12:07.971Z,6.30
2023-04-07T17:14:34.885Z,6.20
2023-04-07T17:17:02.043Z,6.20
2023-04-07T17:19:28.859Z,6.20
2023-04-07T17:21:55.663Z,6.20
2023-04-07T17:24:22.487Z,6.10
2023-04-07T17:26:49.361Z,6.10
2023-04-07T17:29:17.254Z,6.10
2023-04-07T17:31:44.166Z,6.20
2023-04-07T17:34:11.328Z,6.20
2023-04-07T17:36:38.167Z,6.20
2023-04-07T17:39:05.024Z,6.10
2023-04-07T17:41:34.528Z,6.20
2023-04-07T17:44:01.847Z,6.10
2023-04-07T17:46:28.797Z,6.10
2023-04-07T17:48:57.585Z,6.10
2023-04-07T17:51:25.202Z,6.10
2023-04-07T17:53:53.491Z,6.10
2023-04-07T17:56:20.787Z,6.10
2023-04-07T17:58:47.945Z,6.10
2023-04-07T18:01:15.527Z,6.00
2023-04-07T18:03:42.505Z,6.00
2023-04-07T18:06:09.605Z,6.10
2023-04-07T18:08:36.524Z,6.10
2023-04-07T18:11:05.817Z,6.10
2023-04-07T18:13:34.062Z,6.10
2023-04-07T18:16:00.899Z,6.10
2023-04-07T18:18:28.102Z,6.00
2023-04-07T18:20:54.870Z,6.00
2023-04-07T18:23:21.493Z,6.00
2023-04-07T18:25:49.453Z,6.00
2023-04-07T18:28:17.161Z,6.00
2023-04-07T18:30:43.853Z,6.00
2023-04-07T18:33:10.720Z,6.00
2023-04-07T18:35:37.804Z,6.00
2023-04-07T18:38:04.945Z,6.00
2023-04-07T18:40:33.402Z,6.00
2023-04-07T18:43:00.194Z,6.00
2023-04-07T18:45:26.978Z,6.00
2023-04-07T18:47:53.794Z,5.90
2023-04-07T18:50:20.489Z,6.00
2023-04-07T18:52:47.336Z,5.90
2023-04-07T18:55:14.111Z,5.90
2023-04-07T18:57:41.095Z,5.90
2023-04-07T19:00:08.793Z,5.90
2023-04-07T19:02:35.928Z,5.90
2023-04-07T19:05:03.082Z,5.90
2023-04-07T19:07:29.806Z,5.90
2023-04-07T19:09:56.473Z,5.90
2023-04-07T19:12:23.192Z,5.80
2023-04-07T19:14:49.842Z,5.90
2023-04-07T19:17:16.788Z,5.90
2023-04-07T19:19:43.543Z,5.90
2023-04-07T19:22:10.164Z,5.90
2023-04-07T19:24:36.838Z,5.90
2023-04-07T19:27:04.312Z,5.90
2023-04-07T19:29:31.290Z,5.90
2023-04-07T19:31:57.964Z,5.90
2023-04-07T19:34:24.674Z,5.90
2023-04-07T19:36:51.298Z,5.90
2023-04-07T19:39:18.012Z,5.90
2023-04-07T19:41:44.627Z,5.90
2023-04-07T19:44:11.542Z,5.90
2023-04-07T19:46:38.228Z,5.90
2023-04-07T19:49:04.921Z,5.90
2023-04-07T19:51:31.638Z,5.90
2023-04-07T19:53:58.368Z,5.90
2023-04-07T19:56:25.105Z,5.90
2023-04-07T19:58:51.989Z,5.80
2023-04-07T20:01:19.235Z,5.90
2023-04-07T20:03:46.811Z,5.90
2023-04-07T20:06:14.983Z,5.90
2023-04-07T20:08:42.420Z,5.90
2023-04-07T20:11:13.233Z,5.90
2023-04-07T20:13:41.291Z,5.90
2023-04-07T20:16:08.571Z,5.80
2023-04-07T20:18:35.414Z,5.80
2023-04-07T20:21:02.946Z,5.80
2023-04-07T20:23:29.742Z,5.70
2023-04-07T20:25:56.444Z,5.80
2023-04-07T20:28:24.495Z,5.80
2023-04-07T20:30:51.645Z,5.80
2023-04-07T20:33:18.459Z,5.80
2023-04-07T20:35:45.555Z,5.80
2023-04-07T20:38:12.838Z,5.80
2023-04-07T20:40:39.701Z,5.80
2023-04-07T20:43:06.496Z,5.80
2023-04-07T20:45:34.174Z,5.80
2023-04-07T20:48:01.715Z,5.70
2023-04-07T20:50:28.641Z,5.70
2023-04-07T20:52:55.364Z,5.80
2023-04-07T20:55:22.255Z,5.80
2023-04-07T20:57:49.841Z,5.70
2023-04-07T21:00:18.707Z,5.70
2023-04-07T21:02:46.946Z,5.70
2023-04-07T21:05:14.056Z,5.70
2023-04-07T21:07:41.059Z,5.80
2023-04-07T21:10:08.987Z,5.80
2023-04-07T21:12:36.539Z,5.80
2023-04-07T21:15:03.546Z,5.80
2023-04-07T21:17:30.244Z,5.80
2023-04-07T21:19:56.922Z,5.80
2023-04-07T21:22:24.976Z,5.70
2023-04-07T21:24:53.428Z,5.70
2023-04-07T21:27:20.993Z,5.70
2023-04-07T21:29:47.718Z,5.70
2023-04-07T21:32:15.406Z,5.70
2023-04-07T21:34:42.236Z,5.70
2023-04-07T21:37:08.904Z,5.70
2023-04-07T21:39:35.566Z,5.70
2023-04-07T21:42:02.569Z,5.70
2023-04-07T21:44:29.356Z,5.70
2023-04-07T21:46:56.163Z,5.70
2023-04-07T21:49:25.248Z,5.70
2023-04-07T21:51:51.941Z,5.70
2023-04-07T21:54:18.603Z,5.70
2023-04-07T21:56:49.237Z,5.70
2023-04-07T21:59:17.283Z,5.70
2023-04-07T22:01:46.081Z,5.70
2023-04-07T22:04:13.414Z,5.70
2023-04-07T22:06:40.484Z,5.70
2023-04-07T22:09:08.017Z,5.70
2023-04-07T22:11:35.620Z,5.70
2023-04-07T22:14:02.267Z,5.70
2023-04-07T22:16:29.056Z,5.70
2023-04-07T22:18:55.669Z,5.70
2023-04-07T22:21:22.471Z,5.70
2023-04-07T22:23:50.597Z,5.70
2023-04-07T22:26:17.479Z,5.70
2023-04-07T22:28:44.108Z,5.70
2023-04-07T22:31:10.958Z,5.70
2023-04-07T22:33:37.836Z,5.70
2023-04-07T22:36:05.070Z,5.70
2023-04-07T22:38:31.666Z,5.70
2023-04-07T22:40:58.331Z,5.70
2023-04-07T22:43:25.283Z,5.70
2023-04-07T22:45:51.917Z,5.70
2023-04-07T22:48:18.625Z,5.70
2023-04-07T22:50:45.474Z,5.70
2023-04-07T22:53:12.115Z,5.70
2023-04-07T22:55:38.777Z,5.70
2023-04-07T22:58:05.651Z,5.70
2023-04-07T23:00:32.397Z,5.70
2023-04-07T23:02:59.151Z,5.70
2023-04-07T23:05:25.957Z,5.70
2023-04-07T23:07:53.424Z,5.70
2023-04-07T23:10:20.079Z,5.70
2023-04-07T23:12:47.064Z,5.70
2023-04-07T23:15:13.743Z,5.70
2023-04-07T23:17:40.583Z,5.70
2023-04-07T23:20:08.094Z,5.60
2023-04-07T23:22:34.708Z,5.70
2023-04-07T23:25:01.598Z,5.70
2023-04-07T23:27:28.229Z,5.70
2023-04-07T23:29:54.968Z,5.70
2023-04-07T23:32:22.028Z,5.70
2023-04-07T23:34:48.622Z,5.70
2023-04-07T23:37:15.431Z,5.70
2023-04-07T23:39:42.124Z,5.70
2023-04-07T23:42:08.864Z,5.70
2023-04-07T23:44:35.616Z,5.70
2023-04-07T23:47:02.403Z,5.70
2023-04-07T23:49:29.290Z,5.70
2023-04-07T23:51:56.087Z,5.70
2023-04-07T23:54:22.800Z,5.70
2023-04-07T23:56:49.422Z,5.70
2023-04-07T23:59:16.086Z,5.70
